sensor_id;sensor_type;location;lat;lon;timestamp;P1;durP1;ratioP1;P2;durP2;ratioP2
24279;SDS011;12395;42.808;23.408;2023-04-08T00:02:15;17.70;;;10.20;;
24279;SDS011;12395;42.808;23.408;2023-04-08T00:04:40;17.30;;;10.67;;
24279;SDS011;12395;42.808;23.408;2023-04-08T00:07:06;17.43;;;10.80;;
24279;SDS011;12395;42.808;23.408;2023-04-08T00:09:31;17.07;;;10.07;;
24279;SDS011;12395;42.808;23.408;2023-04-08T00:11:57;16.93;;;10.67;;
24279;SDS011;12395;42.808;23.408;2023-04-08T00:14:23;16.47;;;10.70;;
24279;SDS011;12395;42.808;23.408;2023-04-08T00:16:48;15.80;;;9.93;;
24279;SDS011;12395;42.808;23.408;2023-04-08T00:19:13;16.57;;;10.67;;
24279;SDS011;12395;42.808;23.408;2023-04-08T00:21:39;18.73;;;10.57;;
24279;SDS011;12395;42.808;23.408;2023-04-08T00:24:04;18.67;;;11.30;;
24279;SDS011;12395;42.808;23.408;2023-04-08T00:26:30;20.83;;;11.43;;
24279;SDS011;12395;42.808;23.408;2023-04-08T00:28:56;21.53;;;12.13;;
24279;SDS011;12395;42.808;23.408;2023-04-08T00:31:22;18.00;;;11.27;;
24279;SDS011;12395;42.808;23.408;2023-04-08T00:33:47;20.07;;;11.50;;
24279;SDS011;12395;42.808;23.408;2023-04-08T00:36:13;18.70;;;10.83;;
24279;SDS011;12395;42.808;23.408;2023-04-08T00:38:38;19.60;;;11.50;;
24279;SDS011;12395;42.808;23.408;2023-04-08T00:41:03;18.10;;;11.07;;
24279;SDS011;12395;42.808;23.408;2023-04-08T00:43:29;19.07;;;10.83;;
24279;SDS011;12395;42.808;23.408;2023-04-08T00:45:55;18.10;;;10.87;;
24279;SDS011;12395;42.808;23.408;2023-04-08T00:48:20;18.97;;;10.97;;
24279;SDS011;12395;42.808;23.408;2023-04-08T00:50:46;19.03;;;10.97;;
24279;SDS011;12395;42.808;23.408;2023-04-08T00:53:13;18.40;;;11.47;;
24279;SDS011;12395;42.808;23.408;2023-04-08T00:55:41;19.53;;;11.67;;
24279;SDS011;12395;42.808;23.408;2023-04-08T00:58:07;20.67;;;11.77;;
24279;SDS011;12395;42.808;23.408;2023-04-08T01:00:32;20.67;;;12.47;;
24279;SDS011;12395;42.808;23.408;2023-04-08T01:03:07;22.17;;;12.67;;
24279;SDS011;12395;42.808;23.408;2023-04-08T01:05:58;21.70;;;12.47;;
24279;SDS011;12395;42.808;23.408;2023-04-08T01:08:31;19.45;;;11.55;;
24279;SDS011;12395;42.808;23.408;2023-04-08T01:11:00;21.80;;;12.20;;
24279;SDS011;12395;42.808;23.408;2023-04-08T01:13:27;18.80;;;11.55;;
24279;SDS011;12395;42.808;23.408;2023-04-08T01:15:55;21.23;;;11.97;;
24279;SDS011;12395;42.808;23.408;2023-04-08T01:18:20;21.73;;;12.20;;
24279;SDS011;12395;42.808;23.408;2023-04-08T01:20:46;20.53;;;11.70;;
24279;SDS011;12395;42.808;23.408;2023-04-08T01:25:55;19.47;;;11.07;;
24279;SDS011;12395;42.808;23.408;2023-04-08T01:28:22;18.87;;;11.27;;
24279;SDS011;12395;42.808;23.408;2023-04-08T01:30:51;19.83;;;11.30;;
24279;SDS011;12395;42.808;23.408;2023-04-08T01:33:20;20.02;;;11.18;;
24279;SDS011;12395;42.808;23.408;2023-04-08T01:35:46;19.17;;;11.10;;
24279;SDS011;12395;42.808;23.408;2023-04-08T01:38:16;17.35;;;10.45;;
24279;SDS011;12395;42.808;23.408;2023-04-08T01:40:44;16.00;;;10.10;;
24279;SDS011;12395;42.808;23.408;2023-04-08T01:43:12;19.70;;;11.00;;
24279;SDS011;12395;42.808;23.408;2023-04-08T01:45:40;17.10;;;10.30;;
24279;SDS011;12395;42.808;23.408;2023-04-08T01:48:08;16.63;;;10.47;;
24279;SDS011;12395;42.808;23.408;2023-04-08T01:50:34;16.53;;;9.83;;
24279;SDS011;12395;42.808;23.408;2023-04-08T01:53:00;18.02;;;10.00;;
24279;SDS011;12395;42.808;23.408;2023-04-08T01:55:28;16.23;;;9.90;;
24279;SDS011;12395;42.808;23.408;2023-04-08T01:57:55;16.30;;;10.20;;
24279;SDS011;12395;42.808;23.408;2023-04-08T02:00:25;16.60;;;10.07;;
24279;SDS011;12395;42.808;23.408;2023-04-08T02:02:53;16.37;;;10.10;;
24279;SDS011;12395;42.808;23.408;2023-04-08T02:05:19;15.80;;;9.30;;
24279;SDS011;12395;42.808;23.408;2023-04-08T02:07:48;14.77;;;9.17;;
24279;SDS011;12395;42.808;23.408;2023-04-08T02:10:14;15.87;;;9.87;;
24279;SDS011;12395;42.808;23.408;2023-04-08T02:12:40;15.60;;;9.47;;
24279;SDS011;12395;42.808;23.408;2023-04-08T02:17:36;16.23;;;9.57;;
24279;SDS011;12395;42.808;23.408;2023-04-08T02:20:10;15.40;;;9.60;;
24279;SDS011;12395;42.808;23.408;2023-04-08T02:22:37;17.00;;;10.23;;
24279;SDS011;12395;42.808;23.408;2023-04-08T02:25:07;16.77;;;10.63;;
24279;SDS011;12395;42.808;23.408;2023-04-08T02:27:39;17.13;;;10.90;;
24279;SDS011;12395;42.808;23.408;2023-04-08T02:30:06;18.87;;;11.20;;
24279;SDS011;12395;42.808;23.408;2023-04-08T02:32:34;19.73;;;11.73;;
24279;SDS011;12395;42.808;23.408;2023-04-08T02:35:00;20.20;;;12.13;;
24279;SDS011;12395;42.808;23.408;2023-04-08T02:37:28;18.90;;;11.70;;
24279;SDS011;12395;42.808;23.408;2023-04-08T02:42:23;20.17;;;12.02;;
24279;SDS011;12395;42.808;23.408;2023-04-08T02:44:48;22.13;;;11.45;;
24279;SDS011;12395;42.808;23.408;2023-04-08T02:47:14;18.85;;;11.48;;
24279;SDS011;12395;42.808;23.408;2023-04-08T02:49:39;17.93;;;10.67;;
24279;SDS011;12395;42.808;23.408;2023-04-08T02:52:05;19.03;;;11.07;;
24279;SDS011;12395;42.808;23.408;2023-04-08T02:54:30;19.02;;;11.00;;
24279;SDS011;12395;42.808;23.408;2023-04-08T02:56:56;18.93;;;11.27;;
24279;SDS011;12395;42.808;23.408;2023-04-08T02:59:21;20.97;;;12.07;;
24279;SDS011;12395;42.808;23.408;2023-04-08T03:01:46;19.10;;;11.57;;
24279;SDS011;12395;42.808;23.408;2023-04-08T03:04:12;19.70;;;11.83;;
24279;SDS011;12395;42.808;23.408;2023-04-08T03:06:37;18.60;;;11.37;;
24279;SDS011;12395;42.808;23.408;2023-04-08T03:09:02;19.33;;;11.20;;
24279;SDS011;12395;42.808;23.408;2023-04-08T03:11:29;19.27;;;11.85;;
24279;SDS011;12395;42.808;23.408;2023-04-08T03:13:55;21.23;;;11.83;;
24279;SDS011;12395;42.808;23.408;2023-04-08T03:16:20;17.13;;;10.33;;
24279;SDS011;12395;42.808;23.408;2023-04-08T03:18:46;16.67;;;10.30;;
24279;SDS011;12395;42.808;23.408;2023-04-08T03:21:13;17.60;;;10.43;;
24279;SDS011;12395;42.808;23.408;2023-04-08T03:23:38;16.03;;;9.87;;
24279;SDS011;12395;42.808;23.408;2023-04-08T03:26:04;15.33;;;9.30;;
24279;SDS011;12395;42.808;23.408;2023-04-08T03:28:29;13.60;;;8.40;;
24279;SDS011;12395;42.808;23.408;2023-04-08T03:30:55;13.77;;;8.60;;
24279;SDS011;12395;42.808;23.408;2023-04-08T03:33:20;13.00;;;8.17;;
24279;SDS011;12395;42.808;23.408;2023-04-08T03:35:46;13.77;;;8.60;;
24279;SDS011;12395;42.808;23.408;2023-04-08T03:38:11;12.60;;;8.20;;
24279;SDS011;12395;42.808;23.408;2023-04-08T03:40:36;14.23;;;8.60;;
24279;SDS011;12395;42.808;23.408;2023-04-08T03:43:02;15.03;;;8.60;;
24279;SDS011;12395;42.808;23.408;2023-04-08T03:45:27;14.37;;;8.47;;
24279;SDS011;12395;42.808;23.408;2023-04-08T03:47:53;14.17;;;9.17;;
24279;SDS011;12395;42.808;23.408;2023-04-08T03:50:18;16.43;;;10.27;;
24279;SDS011;12395;42.808;23.408;2023-04-08T03:52:43;14.97;;;9.70;;
24279;SDS011;12395;42.808;23.408;2023-04-08T03:55:09;17.40;;;10.23;;
24279;SDS011;12395;42.808;23.408;2023-04-08T03:57:34;17.83;;;10.33;;
24279;SDS011;12395;42.808;23.408;2023-04-08T04:00:00;15.63;;;9.67;;
24279;SDS011;12395;42.808;23.408;2023-04-08T04:02:25;14.97;;;9.50;;
24279;SDS011;12395;42.808;23.408;2023-04-08T04:04:50;16.03;;;9.70;;
24279;SDS011;12395;42.808;23.408;2023-04-08T04:07:16;13.87;;;9.03;;
24279;SDS011;12395;42.808;23.408;2023-04-08T04:09:41;15.27;;;9.70;;
24279;SDS011;12395;42.808;23.408;2023-04-08T04:12:07;16.13;;;9.83;;
24279;SDS011;12395;42.808;23.408;2023-04-08T04:14:32;15.50;;;9.50;;
24279;SDS011;12395;42.808;23.408;2023-04-08T04:16:57;17.57;;;9.70;;
24279;SDS011;12395;42.808;23.408;2023-04-08T04:19:23;15.40;;;9.07;;
24279;SDS011;12395;42.808;23.408;2023-04-08T04:21:48;15.53;;;9.70;;
24279;SDS011;12395;42.808;23.408;2023-04-08T04:24:13;13.83;;;8.80;;
24279;SDS011;12395;42.808;23.408;2023-04-08T04:26:40;16.30;;;9.33;;
24279;SDS011;12395;42.808;23.408;2023-04-08T04:29:06;14.03;;;8.90;;
24279;SDS011;12395;42.808;23.408;2023-04-08T04:31:31;13.43;;;8.90;;
24279;SDS011;12395;42.808;23.408;2023-04-08T04:33:57;16.67;;;10.30;;
24279;SDS011;12395;42.808;23.408;2023-04-08T04:36:22;16.40;;;10.37;;
24279;SDS011;12395;42.808;23.408;2023-04-08T04:38:48;17.03;;;10.07;;
24279;SDS011;12395;42.808;23.408;2023-04-08T04:41:14;15.80;;;9.30;;
24279;SDS011;12395;42.808;23.408;2023-04-08T04:43:40;15.67;;;9.23;;
24279;SDS011;12395;42.808;23.408;2023-04-08T04:46:05;15.25;;;9.63;;
24279;SDS011;12395;42.808;23.408;2023-04-08T04:48:33;22.40;;;11.80;;
24279;SDS011;12395;42.808;23.408;2023-04-08T04:51:01;22.33;;;12.90;;
24279;SDS011;12395;42.808;23.408;2023-04-08T04:53:31;38.97;;;22.70;;
24279;SDS011;12395;42.808;23.408;2023-04-08T04:55:56;32.27;;;19.20;;
24279;SDS011;12395;42.808;23.408;2023-04-08T04:58:22;22.93;;;13.77;;
24279;SDS011;12395;42.808;23.408;2023-04-08T05:00:47;20.57;;;12.97;;
24279;SDS011;12395;42.808;23.408;2023-04-08T05:03:13;21.37;;;13.00;;
24279;SDS011;12395;42.808;23.408;2023-04-08T05:05:38;20.08;;;11.15;;
24279;SDS011;12395;42.808;23.408;2023-04-08T05:08:04;18.30;;;10.97;;
24279;SDS011;12395;42.808;23.408;2023-04-08T05:10:31;20.27;;;11.55;;
24279;SDS011;12395;42.808;23.408;2023-04-08T05:12:56;18.77;;;10.65;;
24279;SDS011;12395;42.808;23.408;2023-04-08T05:15:22;16.43;;;10.37;;
24279;SDS011;12395;42.808;23.408;2023-04-08T05:17:47;17.27;;;10.63;;
24279;SDS011;12395;42.808;23.408;2023-04-08T05:20:12;17.85;;;9.95;;
24279;SDS011;12395;42.808;23.408;2023-04-08T05:22:38;16.83;;;10.30;;
24279;SDS011;12395;42.808;23.408;2023-04-08T05:25:04;16.73;;;9.68;;
24279;SDS011;12395;42.808;23.408;2023-04-08T05:27:30;20.07;;;9.67;;
24279;SDS011;12395;42.808;23.408;2023-04-08T05:29:56;15.52;;;9.52;;
24279;SDS011;12395;42.808;23.408;2023-04-08T05:32:21;15.82;;;9.75;;
24279;SDS011;12395;42.808;23.408;2023-04-08T05:34:46;16.73;;;9.90;;
24279;SDS011;12395;42.808;23.408;2023-04-08T05:37:12;18.13;;;10.75;;
24279;SDS011;12395;42.808;23.408;2023-04-08T05:39:37;17.75;;;10.52;;
24279;SDS011;12395;42.808;23.408;2023-04-08T05:42:03;18.98;;;11.23;;
24279;SDS011;12395;42.808;23.408;2023-04-08T05:44:28;17.52;;;10.45;;
24279;SDS011;12395;42.808;23.408;2023-04-08T05:46:53;17.17;;;10.13;;
24279;SDS011;12395;42.808;23.408;2023-04-08T05:51:52;16.83;;;10.10;;
24279;SDS011;12395;42.808;23.408;2023-04-08T05:54:17;18.02;;;11.07;;
24279;SDS011;12395;42.808;23.408;2023-04-08T05:56:42;16.80;;;9.88;;
24279;SDS011;12395;42.808;23.408;2023-04-08T05:59:10;19.38;;;11.60;;
24279;SDS011;12395;42.808;23.408;2023-04-08T06:01:36;25.23;;;14.55;;
24279;SDS011;12395;42.808;23.408;2023-04-08T06:04:01;31.60;;;17.33;;
24279;SDS011;12395;42.808;23.408;2023-04-08T06:06:26;15.02;;;9.85;;
24279;SDS011;12395;42.808;23.408;2023-04-08T06:08:52;17.17;;;10.02;;
24279;SDS011;12395;42.808;23.408;2023-04-08T06:11:17;17.58;;;10.57;;
24279;SDS011;12395;42.808;23.408;2023-04-08T06:13:42;18.40;;;11.13;;
24279;SDS011;12395;42.808;23.408;2023-04-08T06:16:12;17.52;;;11.20;;
24279;SDS011;12395;42.808;23.408;2023-04-08T06:18:38;16.92;;;10.80;;
24279;SDS011;12395;42.808;23.408;2023-04-08T06:21:04;16.40;;;10.10;;
24279;SDS011;12395;42.808;23.408;2023-04-08T06:23:30;16.23;;;10.07;;
24279;SDS011;12395;42.808;23.408;2023-04-08T06:25:55;16.05;;;10.50;;
24279;SDS011;12395;42.808;23.408;2023-04-08T06:28:21;17.00;;;10.73;;
24279;SDS011;12395;42.808;23.408;2023-04-08T06:30:46;17.38;;;10.45;;
24279;SDS011;12395;42.808;23.408;2023-04-08T06:33:12;15.63;;;10.15;;
24279;SDS011;12395;42.808;23.408;2023-04-08T06:35:37;18.25;;;10.75;;
24279;SDS011;12395;42.808;23.408;2023-04-08T06:38:03;16.73;;;10.52;;
24279;SDS011;12395;42.808;23.408;2023-04-08T06:40:28;18.50;;;11.05;;
24279;SDS011;12395;42.808;23.408;2023-04-08T06:42:54;16.38;;;10.00;;
24279;SDS011;12395;42.808;23.408;2023-04-08T06:45:19;15.80;;;9.88;;
24279;SDS011;12395;42.808;23.408;2023-04-08T06:47:45;17.48;;;10.70;;
24279;SDS011;12395;42.808;23.408;2023-04-08T06:50:10;18.48;;;11.10;;
24279;SDS011;12395;42.808;23.408;2023-04-08T06:52:36;16.65;;;10.90;;
24279;SDS011;12395;42.808;23.408;2023-04-08T06:55:01;17.83;;;11.05;;
24279;SDS011;12395;42.808;23.408;2023-04-08T06:57:26;18.20;;;10.27;;
24279;SDS011;12395;42.808;23.408;2023-04-08T06:59:52;16.08;;;10.23;;
24279;SDS011;12395;42.808;23.408;2023-04-08T07:02:17;18.10;;;10.82;;
24279;SDS011;12395;42.808;23.408;2023-04-08T07:04:43;18.73;;;10.48;;
24279;SDS011;12395;42.808;23.408;2023-04-08T07:07:08;17.98;;;10.50;;
24279;SDS011;12395;42.808;23.408;2023-04-08T07:09:34;18.05;;;10.52;;
24279;SDS011;12395;42.808;23.408;2023-04-08T07:12:00;18.13;;;11.10;;
24279;SDS011;12395;42.808;23.408;2023-04-08T07:14:27;18.77;;;10.90;;
24279;SDS011;12395;42.808;23.408;2023-04-08T07:16:53;18.23;;;11.15;;
24279;SDS011;12395;42.808;23.408;2023-04-08T07:19:20;19.10;;;11.50;;
24279;SDS011;12395;42.808;23.408;2023-04-08T07:21:46;22.58;;;12.98;;
24279;SDS011;12395;42.808;23.408;2023-04-08T07:24:12;22.08;;;12.35;;
24279;SDS011;12395;42.808;23.408;2023-04-08T07:26:38;18.33;;;11.40;;
24279;SDS011;12395;42.808;23.408;2023-04-08T07:29:03;17.58;;;10.63;;
24279;SDS011;12395;42.808;23.408;2023-04-08T07:31:29;15.90;;;9.75;;
24279;SDS011;12395;42.808;23.408;2023-04-08T07:33:54;16.20;;;10.02;;
24279;SDS011;12395;42.808;23.408;2023-04-08T07:36:20;17.02;;;10.27;;
24279;SDS011;12395;42.808;23.408;2023-04-08T07:38:46;16.83;;;10.48;;
24279;SDS011;12395;42.808;23.408;2023-04-08T07:41:11;16.95;;;10.57;;
24279;SDS011;12395;42.808;23.408;2023-04-08T07:43:37;16.23;;;10.35;;
24279;SDS011;12395;42.808;23.408;2023-04-08T07:46:03;17.85;;;10.93;;
24279;SDS011;12395;42.808;23.408;2023-04-08T07:48:33;16.02;;;9.90;;
24279;SDS011;12395;42.808;23.408;2023-04-08T07:51:03;16.73;;;10.25;;
24279;SDS011;12395;42.808;23.408;2023-04-08T07:53:29;18.30;;;10.20;;
24279;SDS011;12395;42.808;23.408;2023-04-08T07:55:55;18.15;;;10.68;;
24279;SDS011;12395;42.808;23.408;2023-04-08T07:58:21;18.98;;;10.82;;
24279;SDS011;12395;42.808;23.408;2023-04-08T08:00:46;17.70;;;11.20;;
24279;SDS011;12395;42.808;23.408;2023-04-08T08:03:12;16.33;;;10.27;;
24279;SDS011;12395;42.808;23.408;2023-04-08T08:05:37;17.75;;;10.38;;
24279;SDS011;12395;42.808;23.408;2023-04-08T08:08:03;17.63;;;10.50;;
24279;SDS011;12395;42.808;23.408;2023-04-08T08:10:28;19.50;;;11.73;;
24279;SDS011;12395;42.808;23.408;2023-04-08T08:12:54;17.90;;;11.55;;
24279;SDS011;12395;42.808;23.408;2023-04-08T08:15:22;20.13;;;11.25;;
24279;SDS011;12395;42.808;23.408;2023-04-08T08:17:48;16.75;;;10.45;;
24279;SDS011;12395;42.808;23.408;2023-04-08T08:20:13;20.63;;;11.95;;
24279;SDS011;12395;42.808;23.408;2023-04-08T08:22:38;19.60;;;11.82;;
24279;SDS011;12395;42.808;23.408;2023-04-08T08:25:04;20.08;;;10.80;;
24279;SDS011;12395;42.808;23.408;2023-04-08T08:27:31;46.28;;;31.85;;
24279;SDS011;12395;42.808;23.408;2023-04-08T08:29:58;25.63;;;11.40;;
24279;SDS011;12395;42.808;23.408;2023-04-08T08:32:23;18.60;;;11.00;;
24279;SDS011;12395;42.808;23.408;2023-04-08T08:34:49;20.38;;;11.63;;
24279;SDS011;12395;42.808;23.408;2023-04-08T08:37:14;18.63;;;10.57;;
24279;SDS011;12395;42.808;23.408;2023-04-08T08:39:40;18.27;;;10.15;;
24279;SDS011;12395;42.808;23.408;2023-04-08T08:42:06;18.90;;;10.25;;
24279;SDS011;12395;42.808;23.408;2023-04-08T08:44:31;18.42;;;10.20;;
24279;SDS011;12395;42.808;23.408;2023-04-08T08:46:57;18.98;;;9.73;;
24279;SDS011;12395;42.808;23.408;2023-04-08T08:49:22;18.70;;;9.88;;
24279;SDS011;12395;42.808;23.408;2023-04-08T08:51:48;16.73;;;9.55;;
24279;SDS011;12395;42.808;23.408;2023-04-08T08:54:15;18.20;;;10.13;;
24279;SDS011;12395;42.808;23.408;2023-04-08T08:56:40;16.52;;;10.15;;
24279;SDS011;12395;42.808;23.408;2023-04-08T08:59:07;16.95;;;9.68;;
24279;SDS011;12395;42.808;23.408;2023-04-08T09:04:13;18.85;;;10.43;;
24279;SDS011;12395;42.808;23.408;2023-04-08T09:06:41;18.33;;;10.35;;
24279;SDS011;12395;42.808;23.408;2023-04-08T09:09:07;17.47;;;9.57;;
24279;SDS011;12395;42.808;23.408;2023-04-08T09:11:36;17.73;;;9.68;;
24279;SDS011;12395;42.808;23.408;2023-04-08T09:16:30;18.60;;;9.57;;
24279;SDS011;12395;42.808;23.408;2023-04-08T09:18:57;18.50;;;9.77;;
24279;SDS011;12395;42.808;23.408;2023-04-08T09:21:33;3.80;;;3.25;;
24279;SDS011;12395;42.808;23.408;2023-04-08T09:23:59;19.73;;;9.77;;
24279;SDS011;12395;42.808;23.408;2023-04-08T09:26:25;17.67;;;9.60;;
24279;SDS011;12395;42.808;23.408;2023-04-08T09:28:58;18.25;;;9.63;;
24279;SDS011;12395;42.808;23.408;2023-04-08T09:31:34;18.38;;;10.35;;
24279;SDS011;12395;42.808;23.408;2023-04-08T09:34:09;18.40;;;10.32;;
24279;SDS011;12395;42.808;23.408;2023-04-08T09:36:36;18.13;;;9.18;;
24279;SDS011;12395;42.808;23.408;2023-04-08T09:39:02;15.10;;;8.95;;
24279;SDS011;12395;42.808;23.408;2023-04-08T09:41:27;19.45;;;10.05;;
24279;SDS011;12395;42.808;23.408;2023-04-08T09:43:55;17.55;;;9.80;;
24279;SDS011;12395;42.808;23.408;2023-04-08T09:49:07;18.40;;;9.70;;
24279;SDS011;12395;42.808;23.408;2023-04-08T09:51:41;16.23;;;9.38;;
24279;SDS011;12395;42.808;23.408;2023-04-08T09:54:13;15.10;;;9.23;;
24279;SDS011;12395;42.808;23.408;2023-04-08T09:56:43;20.23;;;9.85;;
24279;SDS011;12395;42.808;23.408;2023-04-08T09:59:16;16.60;;;9.45;;
24279;SDS011;12395;42.808;23.408;2023-04-08T10:01:49;18.30;;;10.00;;
24279;SDS011;12395;42.808;23.408;2023-04-08T10:04:17;16.58;;;9.43;;
24279;SDS011;12395;42.808;23.408;2023-04-08T10:06:56;14.10;;;8.32;;
24279;SDS011;12395;42.808;23.408;2023-04-08T10:09:27;15.35;;;8.20;;
24279;SDS011;12395;42.808;23.408;2023-04-08T10:11:53;16.00;;;8.98;;
24279;SDS011;12395;42.808;23.408;2023-04-08T10:14:19;12.65;;;7.35;;
24279;SDS011;12395;42.808;23.408;2023-04-08T10:16:46;13.85;;;8.30;;
24279;SDS011;12395;42.808;23.408;2023-04-08T10:27:41;21.52;;;11.50;;
24279;SDS011;12395;42.808;23.408;2023-04-08T10:32:52;13.00;;;7.80;;
24279;SDS011;12395;42.808;23.408;2023-04-08T10:35:36;14.18;;;7.93;;
24279;SDS011;12395;42.808;23.408;2023-04-08T10:38:06;13.38;;;7.38;;
24279;SDS011;12395;42.808;23.408;2023-04-08T10:40:35;12.00;;;6.80;;
24279;SDS011;12395;42.808;23.408;2023-04-08T10:43:03;12.45;;;6.72;;
24279;SDS011;12395;42.808;23.408;2023-04-08T10:45:29;11.95;;;6.85;;
24279;SDS011;12395;42.808;23.408;2023-04-08T10:47:55;25.95;;;13.85;;
24279;SDS011;12395;42.808;23.408;2023-04-08T10:50:20;15.43;;;8.60;;
24279;SDS011;12395;42.808;23.408;2023-04-08T10:55:14;17.35;;;9.13;;
24279;SDS011;12395;42.808;23.408;2023-04-08T10:57:42;12.95;;;7.57;;
24279;SDS011;12395;42.808;23.408;2023-04-08T11:00:10;10.23;;;6.22;;
24279;SDS011;12395;42.808;23.408;2023-04-08T11:02:41;10.70;;;5.85;;
24279;SDS011;12395;42.808;23.408;2023-04-08T11:05:08;17.38;;;9.80;;
24279;SDS011;12395;42.808;23.408;2023-04-08T11:07:38;12.27;;;7.28;;
24279;SDS011;12395;42.808;23.408;2023-04-08T11:10:05;10.35;;;6.43;;
24279;SDS011;12395;42.808;23.408;2023-04-08T11:12:32;12.18;;;7.07;;
24279;SDS011;12395;42.808;23.408;2023-04-08T11:14:58;11.50;;;6.85;;
24279;SDS011;12395;42.808;23.408;2023-04-08T11:17:23;13.73;;;7.70;;
24279;SDS011;12395;42.808;23.408;2023-04-08T11:19:48;13.50;;;7.40;;
24279;SDS011;12395;42.808;23.408;2023-04-08T11:22:14;14.20;;;7.00;;
24279;SDS011;12395;42.808;23.408;2023-04-08T11:24:40;11.15;;;6.40;;
24279;SDS011;12395;42.808;23.408;2023-04-08T11:27:06;12.20;;;6.45;;
24279;SDS011;12395;42.808;23.408;2023-04-08T11:29:31;11.98;;;6.30;;
24279;SDS011;12395;42.808;23.408;2023-04-08T11:31:57;9.20;;;5.47;;
24279;SDS011;12395;42.808;23.408;2023-04-08T11:34:24;9.40;;;5.70;;
24279;SDS011;12395;42.808;23.408;2023-04-08T11:36:50;9.40;;;6.18;;
24279;SDS011;12395;42.808;23.408;2023-04-08T11:39:16;9.68;;;5.68;;
24279;SDS011;12395;42.808;23.408;2023-04-08T11:41:41;9.40;;;6.07;;
24279;SDS011;12395;42.808;23.408;2023-04-08T11:44:07;12.07;;;7.32;;
24279;SDS011;12395;42.808;23.408;2023-04-08T11:46:34;11.10;;;6.93;;
24279;SDS011;12395;42.808;23.408;2023-04-08T11:49:06;12.32;;;6.70;;
24279;SDS011;12395;42.808;23.408;2023-04-08T11:51:33;10.88;;;6.75;;
24279;SDS011;12395;42.808;23.408;2023-04-08T11:54:00;10.03;;;6.10;;
24279;SDS011;12395;42.808;23.408;2023-04-08T11:56:28;9.88;;;5.85;;
24279;SDS011;12395;42.808;23.408;2023-04-08T11:58:54;9.07;;;5.70;;
24279;SDS011;12395;42.808;23.408;2023-04-08T12:01:20;9.57;;;5.75;;
24279;SDS011;12395;42.808;23.408;2023-04-08T12:03:55;9.90;;;6.07;;
24279;SDS011;12395;42.808;23.408;2023-04-08T12:06:22;10.10;;;5.95;;
24279;SDS011;12395;42.808;23.408;2023-04-08T12:08:48;9.02;;;6.03;;
24279;SDS011;12395;42.808;23.408;2023-04-08T12:11:14;9.07;;;5.50;;
24279;SDS011;12395;42.808;23.408;2023-04-08T12:13:40;9.43;;;5.63;;
24279;SDS011;12395;42.808;23.408;2023-04-08T12:16:06;10.30;;;6.68;;
24279;SDS011;12395;42.808;23.408;2023-04-08T12:18:31;9.23;;;6.15;;
24279;SDS011;12395;42.808;23.408;2023-04-08T12:20:57;11.90;;;6.32;;
24279;SDS011;12395;42.808;23.408;2023-04-08T12:23:22;10.70;;;6.47;;
24279;SDS011;12395;42.808;23.408;2023-04-08T12:25:48;9.25;;;6.03;;
24279;SDS011;12395;42.808;23.408;2023-04-08T12:28:13;9.27;;;5.30;;
24279;SDS011;12395;42.808;23.408;2023-04-08T12:30:38;8.40;;;5.07;;
24279;SDS011;12395;42.808;23.408;2023-04-08T12:33:04;8.68;;;5.45;;
24279;SDS011;12395;42.808;23.408;2023-04-08T12:35:30;8.40;;;5.38;;
24279;SDS011;12395;42.808;23.408;2023-04-08T12:37:56;9.60;;;5.60;;
24279;SDS011;12395;42.808;23.408;2023-04-08T12:40:21;10.43;;;6.50;;
24279;SDS011;12395;42.808;23.408;2023-04-08T12:42:46;11.23;;;6.88;;
24279;SDS011;12395;42.808;23.408;2023-04-08T12:45:12;12.80;;;7.57;;
24279;SDS011;12395;42.808;23.408;2023-04-08T12:47:38;12.10;;;7.60;;
24279;SDS011;12395;42.808;23.408;2023-04-08T12:50:03;12.35;;;7.00;;
24279;SDS011;12395;42.808;23.408;2023-04-08T12:52:29;12.63;;;7.55;;
24279;SDS011;12395;42.808;23.408;2023-04-08T12:54:54;13.35;;;7.55;;
24279;SDS011;12395;42.808;23.408;2023-04-08T12:57:20;12.45;;;6.85;;
24279;SDS011;12395;42.808;23.408;2023-04-08T12:59:45;13.05;;;6.55;;
24279;SDS011;12395;42.808;23.408;2023-04-08T13:02:11;10.68;;;6.55;;
24279;SDS011;12395;42.808;23.408;2023-04-08T13:04:37;8.60;;;5.60;;
24279;SDS011;12395;42.808;23.408;2023-04-08T13:07:02;9.25;;;6.05;;
24279;SDS011;12395;42.808;23.408;2023-04-08T13:09:28;10.43;;;5.93;;
24279;SDS011;12395;42.808;23.408;2023-04-08T13:11:54;8.80;;;5.80;;
24279;SDS011;12395;42.808;23.408;2023-04-08T13:14:20;8.82;;;5.15;;
24279;SDS011;12395;42.808;23.408;2023-04-08T13:16:45;8.77;;;5.70;;
24279;SDS011;12395;42.808;23.408;2023-04-08T13:19:11;7.80;;;5.30;;
24279;SDS011;12395;42.808;23.408;2023-04-08T13:21:37;12.38;;;7.10;;
24279;SDS011;12395;42.808;23.408;2023-04-08T13:24:02;10.23;;;5.75;;
24279;SDS011;12395;42.808;23.408;2023-04-08T13:26:28;12.70;;;7.22;;
24279;SDS011;12395;42.808;23.408;2023-04-08T13:28:53;13.30;;;7.10;;
24279;SDS011;12395;42.808;23.408;2023-04-08T13:31:19;14.73;;;8.00;;
24279;SDS011;12395;42.808;23.408;2023-04-08T13:33:45;10.77;;;6.40;;
24279;SDS011;12395;42.808;23.408;2023-04-08T13:36:11;16.33;;;8.45;;
24279;SDS011;12395;42.808;23.408;2023-04-08T13:38:36;10.23;;;6.25;;
24279;SDS011;12395;42.808;23.408;2023-04-08T13:41:01;17.10;;;9.57;;
24279;SDS011;12395;42.808;23.408;2023-04-08T13:43:27;16.92;;;9.07;;
24279;SDS011;12395;42.808;23.408;2023-04-08T13:45:52;14.07;;;8.95;;
24279;SDS011;12395;42.808;23.408;2023-04-08T13:48:18;17.42;;;10.68;;
24279;SDS011;12395;42.808;23.408;2023-04-08T13:50:43;13.93;;;8.63;;
24279;SDS011;12395;42.808;23.408;2023-04-08T13:53:08;10.57;;;6.80;;
24279;SDS011;12395;42.808;23.408;2023-04-08T13:55:34;13.80;;;7.22;;
24279;SDS011;12395;42.808;23.408;2023-04-08T13:57:59;13.88;;;7.10;;
24279;SDS011;12395;42.808;23.408;2023-04-08T14:00:25;15.63;;;7.95;;
24279;SDS011;12395;42.808;23.408;2023-04-08T14:02:51;9.95;;;5.47;;
24279;SDS011;12395;42.808;23.408;2023-04-08T14:05:16;9.30;;;5.60;;
24279;SDS011;12395;42.808;23.408;2023-04-08T14:07:42;9.65;;;5.47;;
24279;SDS011;12395;42.808;23.408;2023-04-08T14:10:07;10.52;;;6.35;;
24279;SDS011;12395;42.808;23.408;2023-04-08T14:12:33;9.68;;;6.50;;
24279;SDS011;12395;42.808;23.408;2023-04-08T14:14:58;14.75;;;6.70;;
24279;SDS011;12395;42.808;23.408;2023-04-08T14:17:24;10.38;;;6.68;;
24279;SDS011;12395;42.808;23.408;2023-04-08T14:19:49;9.32;;;6.20;;
24279;SDS011;12395;42.808;23.408;2023-04-08T14:22:15;11.30;;;6.60;;
24279;SDS011;12395;42.808;23.408;2023-04-08T14:24:43;13.40;;;6.68;;
24279;SDS011;12395;42.808;23.408;2023-04-08T14:27:08;12.63;;;7.03;;
24279;SDS011;12395;42.808;23.408;2023-04-08T14:29:33;10.75;;;6.47;;
24279;SDS011;12395;42.808;23.408;2023-04-08T14:31:59;9.93;;;6.53;;
24279;SDS011;12395;42.808;23.408;2023-04-08T14:34:25;10.38;;;6.57;;
24279;SDS011;12395;42.808;23.408;2023-04-08T14:36:50;10.98;;;6.85;;
24279;SDS011;12395;42.808;23.408;2023-04-08T14:39:15;10.93;;;6.50;;
24279;SDS011;12395;42.808;23.408;2023-04-08T14:41:41;11.95;;;7.18;;
24279;SDS011;12395;42.808;23.408;2023-04-08T14:44:06;10.50;;;6.38;;